Tiempo atmosférico en la estación meteorológica de Bañobárez, Salamanca (748 m.)

Fecha
DESCASC
Temp. máxima en grados centígrados (hora)
DESCASC
Temp. mínima en grados centígrados (hora)
DESCASC
Temp. media en grados centígrados
DESCASC
Racha de viento máxima en m/sg (hora)
DESCASC
Velocidad máxima media en intervalos de 10 minutos(hora)
DESCASC
Precipitaciones diarias en mm
DESCASC
Precipitaciones de 00:00 a 06:00 en mm
DESCASC
Precipitaciones de 06:00 a 12:00 en mm
DESCASC
Precipitaciones de 12:00 a 18:00 en mm
DESCASC
Precipitaciones de 18:00 a 24:00 en mm
DESCASC
23-11-2017 16.1 (13:50) 9.3 (22:20) 12.7 11.67 (12:30) 7.5 (12:30) 1.2 0 0 0 1.2
22-11-2017 16.8 (12:50) 6.1 (01:30) 11.4 11.67 (17:30) 7.5 (17:20) 0 0 0 0 0
21-11-2017 19.1 (15:10) 0.7 (07:50) 9.9 7.5 (14:00) 4.44 (14:20) 0 0 0 0 0
20-11-2017 18.6 (16:20) -2 (08:00) 8.3 4.17 (15:30) 2.78 (22:50) 0 0 0 0 0
19-11-2017 16 (16:10) -0.4 (00:00) 7.8 5.56 (01:00) 3.89 (00:50) 0 0 0 0 0
18-11-2017 17 (15:30) 1.4 (00:00) 9.2 6.39 (10:20) 3.89 (10:00) 0 0 0 0 0
17-11-2017 18.7 (14:50) 1.4 (00:00) 10.1 6.11 (15:00) 4.17 (07:30) 0 0 0 0 0
16-11-2017 17.6 (16:00) -1.1 (-00:0) 8.3 4.17 (23:00) 2.78 (03:30) 0 0 0 0 0
15-11-2017 15.4 (15:50) 0.8 (00:00) 8.1 6.39 (07:00) 4.44 (06:50) 0 0 0 0 0
14-11-2017 12.1 (15:30) 1.8 (00:00) 7 13.06 (10:20) 7.78 (10:20) 0 0 0 0 0
13-11-2017 13.1 (14:10) 1.5 (00:00) 7.3 10.56 (22:00) 6.39 (23:00) 0 0 0 0 0
12-11-2017 15.6 (15:40) 0.1 (00:00) 7.9 6.39 (15:00) 3.89 (15:40) 0 0 0 0 0
11-11-2017 17.1 (16:10) -0.6 (-00:0) 8.3 4.17 (13:40) 2.22 (16:10) 0 0 0 0 0
10-11-2017 16.2 (16:20) -1.3 (-00:0) 7.5 7.22 (15:10) 3.89 (15:10) 0 0 0 0 0
09-11-2017 11.3 (15:40) -1.2 (-00:0) 5.1 8.33 (15:50) 5 (13:10) 0 0 0 0 0
08-11-2017 12.1 (15:50) 0.1 (00:00) 6.1 8.89 (11:10) 5.56 (11:50) 0 0 0 0 0
07-11-2017 14.8 (15:20) 2.1 (00:00) 8.5 8.06 (15:00) 4.17 (17:40) 0 0 0 0 0
06-11-2017 13.3 (15:30) 2.9 (00:00) 8.1 8.61 (11:40) 5.28 (11:40) 0 0 0 0 0
05-11-2017 12.6 (15:00) 3.2 (00:00) 7.9 7.22 (14:20) 3.33 (13:30) 0 0 0 0 0
04-11-2017 14.5 (15:10) 9.4 (00:00) 11.9 7.78 (15:20) 4.17 (21:40) 7.2 4.2 1 2 0
03-11-2017 14 (11:40) 8.8 (00:00) 11.4 8.89 (11:30) 5.28 (11:20) 13 10.2 0 2.6 0.2
02-11-2017 16.4 (14:30) 11.6 (07:50) 14 10.56 (13:50) 6.11 (13:50) 7 0 0 1 6
01-11-2017 19 (15:30) 3.6 (00:00) 11.3 10 (13:30) 5.83 (13:30) 0 0 0 0 0
31-10-2017 19.8 (17:00) 2.2 (00:00) 11 8.33 (03:30) 5 (03:30) 0 0 0 0 0
30-10-2017 17.4 (17:00) 6.7 (00:00) 12 13.61 (12:20) 8.89 (12:10) 0 0 0 0 0
29-10-2017 21.7 (15:30) 5.2 (00:00) 13.5 8.06 (00:20) 4.72 (12:10) 0 0 0 0 0
28-10-2017 21.3 (16:00) 10.6 (00:00) 15.9 11.67 (10:50) 7.5 (10:50) 0 0 0 0 0
27-10-2017 26.7 (16:00) 10.7 (00:00) 18.7 8.61 (16:30) 5 (16:50) 0 0 0 0 0
26-10-2017 26.4 (17:40) 7.7 (00:00) 17 6.39 (13:20) 3.61 (13:20) 0 0 0 0 0

Gráficas

Temp. máximas Temp. mínimas Temp. medias Precipitaciones Rachas de viento máximas Velocidades máximas media en intervalos de 10 minutos

Datos horarios

Fecha y hora oficial Temperatura (ºC) Velocidad del viento (km/h) Dirección del viento Racha (km/h) Dirección de racha Precipitación (mm) Presión (hPa) Tendencia (hPa) Humedad (%)
2017-11-24 23:00:00 11 10 Sur 22 Sur 0 -- -- 93
2017-11-24 22:00:00 11.4 14 Sur 21 Sudoeste 0 -- -- 94
2017-11-24 21:00:00 11.9 10 Sur 19 Sudoeste 0 -- -- 96
2017-11-24 20:00:00 12.1 10 Sudoeste 21 Sur 0 -- -- 96
2017-11-24 19:00:00 12.3 9 Sur 21 Sur 0 -- -- 96
2017-11-24 18:00:00 12.3 6 Sur 13 Sur 0.2 -- -- 96
2017-11-24 17:00:00 12.3 8 Sudoeste 17 Sudoeste 3.2 -- -- 95
2017-11-24 16:00:00 12.6 7 Sudoeste 23 Sur 1.2 -- -- 94
2017-11-24 15:00:00 13.4 15 Sur 28 Sudoeste 0 -- -- 88
2017-11-24 14:00:00 14.6 16 Sudoeste 31 Sudoeste 0 -- -- 77
2017-11-24 13:00:00 14 11 Sudoeste 27 Sudoeste 0 -- -- 81
2017-11-24 12:00:00 13.7 13 Sudoeste 34 Sudoeste 0 -- -- 82
2017-11-24 11:00:00 12.6 18 Sur 29 Sur 0 -- -- 85
2017-11-24 10:00:00 11 10 Sur 17 Sur 0 -- -- 93
2017-11-24 09:00:00 10.3 6 Sur 15 Sudoeste 0 -- -- 93
2017-11-24 08:00:00 10.4 9 Sur 18 Sur 0 -- -- 93
2017-11-24 07:00:00 9.8 9 Sur 18 Sudoeste 0 -- -- 92
2017-11-24 06:00:00 10.2 9 Sur 21 Sur 0 -- -- 91
2017-11-24 05:00:00 10.3 11 Sur 32 Sur 0 -- -- 89
2017-11-24 04:00:00 10.3 16 Sur 29 Sur 0 -- -- 90
2017-11-24 03:00:00 9.8 16 Sur 31 Sur 0 -- -- 91
2017-11-24 02:00:00 9.7 18 Sur 47 Sur 0 -- -- 89
2017-11-24 01:00:00 9.6 25 Sur 44 Sur 0 -- -- 88
2017-11-24 00:00:00 9.5 19 Sur 37 Sur 0 -- -- 85
2017-11-23 23:00:00 9.6 22 Sur 39 Sur 0.2 -- -- 86
2017-11-23 22:00:00 9.6 17 Sur 40 Sur 1 -- -- 87
2017-11-23 21:00:00 13.9 23 Sudoeste 39 Sur 0 -- -- 50
2017-11-23 20:00:00 13.6 21 Sur 36 Sur 0 -- -- 51
2017-11-23 19:00:00 13.3 15 Sur 33 Sur 0 -- -- 53
2017-11-23 18:00:00 14 18 Sur 34 Sur 0 -- -- 53
2017-11-23 17:00:00 15.4 19 Sur 37 Sur 0 -- -- 49
2017-11-23 16:00:00 15.6 24 Sur 39 Sur 0 -- -- 50
2017-11-23 15:00:00 15.9 23 Sur 41 Sur 0 -- -- 54
2017-11-23 14:00:00 16 25 Sur 39 Sur 0 -- -- 62
2017-11-23 13:00:00 14.2 19 Sudoeste 42 Sur 0 -- -- 77
2017-11-23 12:00:00 13.8 21 Sur 35 Sur 0 -- -- 78
2017-11-23 11:00:00 12.9 16 Sur 34 Sur 0 -- -- 81
2017-11-23 10:00:00 11.4 18 Sur 33 Sur 0 -- -- 87
2017-11-23 09:00:00 11.1 15 Sudoeste 31 Sudoeste 0 -- -- 79
2017-11-23 08:00:00 10.8 16 Sur 30 Sur 0 -- -- 76
2017-11-23 07:00:00 11.8 18 Sur 31 Sur 0 -- -- 75
2017-11-23 06:00:00 12.1 19 Sur 38 Sur 0 -- -- 73
2017-11-23 05:00:00 11.9 15 Sudoeste 28 Sudoeste 0 -- -- 68
2017-11-23 04:00:00 11.7 17 Sudoeste 32 Sudoeste 0 -- -- 61
2017-11-23 03:00:00 11.4 17 Sur 28 Sur 0 -- -- 55
2017-11-23 02:00:00 11.7 17 Sur 33 Sur 0 -- -- 53
2017-11-23 01:00:00 12.2 18 Sur 31 Sur 0 -- -- 50
2017-11-23 00:00:00 12.7 18 Sur 34 Sudoeste 0 -- -- 46
2017-11-22 23:00:00 13 19 Sudoeste 34 Sudoeste 0 -- -- 45
2017-11-22 22:00:00 12.9 17 Sudoeste 33 Sur 0 -- -- 46
2017-11-22 21:00:00 12.6 19 Sur 35 Sur 0 -- -- 45
2017-11-22 20:00:00 12.4 13 Sur 26 Sudeste 0 -- -- 46
2017-11-22 19:00:00 12.4 14 Sur 27 Sur 0 -- -- 45
2017-11-22 18:00:00 13.4 16 Sur 42 Sur 0 -- -- 43
2017-11-22 17:00:00 14.4 22 Sur 41 Sur 0 -- -- 41
2017-11-22 16:00:00 15.7 20 Sur 39 Sur 0 -- -- 40
2017-11-22 15:00:00 15.7 25 Sur 41 Sur 0 -- -- 38
2017-11-22 14:00:00 16 22 Sur 40 Sur 0 -- -- 38
2017-11-22 13:00:00 16.3 25 Sur 40 Sur 0 -- -- 37
2017-11-22 12:00:00 15.6 22 Sudoeste 37 Sudoeste 0 -- -- 39
2017-11-22 11:00:00 14.5 20 Sur 37 Sur 0 -- -- 38
2017-11-22 10:00:00 12.6 16 Sudoeste 31 Sur 0 -- -- 42
2017-11-22 09:00:00 9.8 15 Sur 24 Sur 0 -- -- 50
2017-11-22 08:00:00 9.9 13 Sur 23 Sur 0 -- -- 49
2017-11-22 07:00:00 9.4 11 Sur 21 Sur 0 -- -- 50
2017-11-22 06:00:00 8.5 10 Sur 17 Sur 0 -- -- 52
2017-11-22 05:00:00 9.3 14 Sur 24 Sur 0 -- -- 50
2017-11-22 04:00:00 8.6 14 Sur 25 Sur 0 -- -- 52
2017-11-22 03:00:00 6.9 11 Sur 16 Sur 0 -- -- 58
2017-11-22 02:00:00 7.4 10 Sur 16 Sur 0 -- -- 57
2017-11-22 01:00:00 6.9 8 Sur 13 Sur 0 -- -- 59
2017-11-22 00:00:00 7.6 8 Sur 15 Sur 0 -- -- 56
2017-11-21 23:00:00 6.9 10 Sur 13 Sudeste 0 -- -- 57
2017-11-21 22:00:00 7 6 Sur 11 Sur 0 -- -- 55
2017-11-21 21:00:00 8.2 6 Sur 12 Sur 0 -- -- 52
2017-11-21 20:00:00 9.6 6 Sudeste 14 Sudeste 0 -- -- 48
2017-11-21 19:00:00 11.3 8 Sur 15 Sur 0 -- -- 43
2017-11-21 18:00:00 14.7 6 Sur 19 Sur 0 -- -- 36
2017-11-21 17:00:00 17.9 10 Sur 27 Sur 0 -- -- 31
2017-11-21 16:00:00 19 13 Sur 23 Sudoeste 0 -- -- 30
2017-11-21 15:00:00 18.9 11 Sur 27 Sur 0 -- -- 31
2017-11-21 14:00:00 18.3 15 Sur 27 Sur 0 -- -- 32
2017-11-21 13:00:00 17.6 12 Sur 20 Sudoeste 0 -- -- 33
2017-11-21 12:00:00 16.5 8 Sur 14 Sur 0 -- -- 38
2017-11-21 11:00:00 13.5 8 Sur 13 Sur 0 -- -- 47
2017-11-21 10:00:00 8.9 4 Sudeste 9 Sudeste 0 -- -- 57
2017-11-21 09:00:00 3.7 5 Sudeste 7 Sudeste 0 -- -- 67
2017-11-21 08:00:00 0.9 6 Sudeste 8 Sudeste 0 -- -- 74
2017-11-21 07:00:00 1.4 6 Sudeste 8 Sudeste 0 -- -- 73
2017-11-21 06:00:00 1.2 7 Sudeste 8 Sudeste 0 -- -- 73
2017-11-21 05:00:00 3.5 6 Sudeste 8 Sudeste 0 -- -- 66
2017-11-21 04:00:00 3.5 6 Sudeste 10 Sur 0 -- -- 70
2017-11-21 03:00:00 3.1 6 Sur 10 Sur 0 -- -- 73
2017-11-21 02:00:00 4.8 7 Sur 11 Sur 0 -- -- 68
2017-11-21 01:00:00 3.7 6 Sur 10 Sur 0 -- -- 74
2017-11-21 00:00:00 5.9 8 Sur 11 Sur 0 -- -- 65
2017-11-20 23:00:00 5.9 7 Sudeste 14 Sur 0 -- -- 64
2017-11-20 22:00:00 5.1 6 Sudeste 7 Sudeste 0 -- -- 69
2017-11-20 21:00:00 5.2 6 Sudeste 7 Sudeste 0 -- -- 69
2017-11-20 20:00:00 5.4 0 Calma 5 Oeste 0 -- -- 64
2017-11-20 19:00:00 7.2 0 Calma 3 Sudeste 0 -- -- 55
2017-11-20 18:00:00 13.7 0 Calma 7 Sudoeste 0 -- -- 38
2017-11-20 17:00:00 18.1 4 Sur 11 Sur 0 -- -- 28
2017-11-20 16:00:00 18.2 5 Sudoeste 15 Sudoeste 0 -- -- 31
2017-11-20 15:00:00 17.3 6 Oeste 11 Sudoeste 0 -- -- 35
2017-11-20 14:00:00 16.1 6 Noroeste 12 Noroeste 0 -- -- 37
2017-11-20 13:00:00 14.5 4 Oeste 9 Sudoeste 0 -- -- 37
2017-11-20 12:00:00 12.4 3 Sudoeste 9 Sudoeste 0 -- -- 49
2017-11-20 11:00:00 9.3 3 Sudeste 8 Sudeste 0 -- -- 57
2017-11-20 10:00:00 6.1 4 Sudeste 10 Este 0 -- -- 65
2017-11-20 09:00:00 1 8 Sudeste 10 Sudeste 0 -- -- 75
2017-11-20 08:00:00 -2 2 Sudeste 5 Este 0 -- -- 83
2017-11-20 07:00:00 -0.5 0 Calma 8 Sudeste 0 -- -- 82
2017-11-20 06:00:00 1 5 Sudeste 9 Sudeste 0 -- -- 79
2017-11-20 05:00:00 1.4 8 Sudeste 12 Este 0 -- -- 79
2017-11-20 04:00:00 1.5 8 Sudeste 12 Sudeste 0 -- -- 80
2017-11-20 03:00:00 1.6 6 Sudeste 10 Sudeste 0 -- -- 83
2017-11-20 02:00:00 1.4 3 Este 8 Sudeste 0 -- -- 84
2017-11-20 01:00:00 0.1 2 Sudeste 4 Sudeste 0 -- -- 84
2017-11-20 00:00:00 2.1 3 Sudeste 8 Este 0 -- -- 76
2017-11-19 23:00:00 5.1 7 Este 13 Este 0 -- -- 71
2017-11-19 22:00:00 5.8 10 Este 13 Este 0 -- -- 71
2017-11-19 21:00:00 4.7 6 Este 8 Este 0 -- -- 70
2017-11-19 20:00:00 4.8 4 Este 5 Nordeste 0 -- -- 68
2017-11-19 19:00:00 5.7 0 Calma 3 Nordeste 0 -- -- 62
2017-11-19 18:00:00 13.5 0 Calma 9 Norte 0 -- -- 43
2017-11-19 17:00:00 15.6 5 Norte 12 Norte 0 -- -- 38
2017-11-19 16:00:00 15.8 4 Norte 10 Nordeste 0 -- -- 38
2017-11-19 15:00:00 15.2 4 Norte 15 Nordeste 0 -- -- 41
2017-11-19 14:00:00 13.7 5 Nordeste 13 Noroeste 0 -- -- 50
2017-11-19 13:00:00 11.7 5 Nordeste 14 Norte 0 -- -- 56
2017-11-19 12:00:00 10.2 5 Nordeste 13 Este 0 -- -- 65
2017-11-19 11:00:00 7.1 8 Sudeste 14 Este 0 -- -- 75
2017-11-19 10:00:00 4.6 4 Nordeste 10 Nordeste 0 -- -- 81
2017-11-19 09:00:00 2 0 Calma 19 Este 0 -- -- 89
2017-11-19 08:00:00 0.1 2 Este 8 Este 0 -- -- 90
2017-11-19 07:00:00 0.9 4 Este 10 Este 0 -- -- 88
2017-11-19 06:00:00 0.3 3 Sudeste 4 Sudeste 0 -- -- 88
2017-11-19 05:00:00 1.1 3 Este 14 Este 0 -- -- 85
2017-11-19 04:00:00 4.1 12 Este 20 Este 0 -- -- 75
2017-11-19 03:00:00 3.5 8 Este 17 Este 0 -- -- 76
2017-11-19 02:00:00 5.8 12 Este 19 Este 0 -- -- 67
2017-11-19 01:00:00 6.3 14 Este 20 Este 0 -- -- 68
2017-11-19 00:00:00 6 10 Este 15 Este 0 -- -- 75
2017-11-18 23:00:00 6.6 11 Este 15 Este 0 -- -- 70
2017-11-18 22:00:00 3.9 4 Este 5 Este 0 -- -- 75
2017-11-18 21:00:00 5.2 3 Este 7 Nordeste 0 -- -- 70
2017-11-18 20:00:00 6.1 2 Este 6 Este 0 -- -- 64
2017-11-18 19:00:00 9.3 4 Este 15 Este 0 -- -- 54
2017-11-18 18:00:00 14.1 9 Este 19 Este 0 -- -- 44
2017-11-18 17:00:00 16.4 10 Este 20 Este 0 -- -- 39
2017-11-18 16:00:00 16.9 13 Nordeste 21 Nordeste 0 -- -- 38
2017-11-18 15:00:00 16.6 9 Nordeste 20 Nordeste 0 -- -- 40
2017-11-18 14:00:00 15.7 10 Nordeste 18 Nordeste 0 -- -- 41
2017-11-18 13:00:00 14 9 Nordeste 17 Este 0 -- -- 46
2017-11-18 12:00:00 11.3 6 Este 19 Nordeste 0 -- -- 55
2017-11-18 11:00:00 9.4 12 Este 23 Este 0 -- -- 58
2017-11-18 10:00:00 6.5 14 Nordeste 21 Nordeste 0 -- -- 66
2017-11-18 09:00:00 5 8 Este 15 Este 0 -- -- 70
2017-11-18 08:00:00 3.9 7 Este 16 Este 0 -- -- 75
2017-11-18 07:00:00 4.4 10 Este 14 Este 0 -- -- 73
2017-11-18 06:00:00 3.1 6 Este 9 Este 0 -- -- 78
2017-11-18 05:00:00 4.9 8 Este 14 Este 0 -- -- 72
2017-11-18 04:00:00 2.8 5 Este 8 Este 0 -- -- 85
2017-11-18 03:00:00 2.1 0 Calma 2 Oeste 0 -- -- 80
2017-11-18 02:00:00 3.1 0 Calma 6 Este 0 -- -- 75
2017-11-18 01:00:00 5.2 4 Este 10 Este 0 -- -- 69
2017-11-18 00:00:00 6.4 10 Este 13 Este 0 -- -- 67
2017-11-17 23:00:00 7.5 11 Este 14 Sudeste 0 -- -- 62
2017-11-17 22:00:00 7.7 12 Este 14 Este 0 -- -- 60
2017-11-17 21:00:00 9.7 8 Este 12 Este 0 -- -- 54
2017-11-17 20:00:00 6.2 0 Calma 4 Nordeste 0 -- -- 65
2017-11-17 19:00:00 9.9 0 Calma 5 Norte 0 -- -- 54
2017-11-17 18:00:00 15.4 4 Noroeste 10 Norte 0 -- -- 43
2017-11-17 17:00:00 17.2 6 Norte 13 Este 0 -- -- 40
2017-11-17 16:00:00 18.6 8 Nordeste 15 Este 0 -- -- 30
2017-11-17 15:00:00 18.6 11 Este 22 Este 0 -- -- 31
2017-11-17 14:00:00 17.3 6 Nordeste 15 Nordeste 0 -- -- 37
2017-11-17 13:00:00 15.8 6 Nordeste 14 Nordeste 0 -- -- 39
2017-11-17 12:00:00 15 6 Nordeste 11 Este 0 -- -- 41
2017-11-17 11:00:00 12.3 8 Este 15 Este 0 -- -- 47
2017-11-17 10:00:00 8.8 6 Este 13 Este 0 -- -- 57
2017-11-17 09:00:00 5.5 6 Este 14 Este 0 -- -- 65
2017-11-17 08:00:00 5 10 Este 20 Este 0 -- -- 66
2017-11-17 07:00:00 5.6 9 Este 15 Este 0 -- -- 63
2017-11-17 06:00:00 4.4 6 Este 14 Este 0 -- -- 67
2017-11-17 05:00:00 4.2 12 Este 16 Este 0 -- -- 68
2017-11-17 04:00:00 4.4 13 Este 15 Este 0 -- -- 68
2017-11-17 03:00:00 1.5 0 Calma 3 Este 0 -- -- 77
2017-11-17 02:00:00 3.4 0 Calma 6 Sudeste 0 -- -- 71
2017-11-17 01:00:00 5.2 6 Sudeste 11 Este 0 -- -- 65
2017-11-17 00:00:00 5.8 9 Este 12 Este 0 -- -- 63
2017-11-16 23:00:00 6.9 10 Este 15 Este 0 -- -- 60
2017-11-16 22:00:00 3.5 0 Calma -- -- 0 -- -- 72
2017-11-16 21:00:00 4.4 0 Calma -- -- 0 -- -- 68
2017-11-16 20:00:00 5.2 0 Calma 0 Calma 0 -- -- 63
2017-11-16 19:00:00 8.6 0 Calma 5 Norte 0 -- -- 52
2017-11-16 18:00:00 15.2 3 Norte 8 Nordeste 0 -- -- 36
2017-11-16 17:00:00 17.4 5 Nordeste 12 Este 0 -- -- 31
2017-11-16 16:00:00 17.6 5 Norte 13 Nordeste 0 -- -- 30
2017-11-16 15:00:00 17 7 Nordeste 14 Nordeste 0 -- -- 32
2017-11-16 14:00:00 15.5 6 Nordeste 14 Nordeste 0 -- -- 37
2017-11-16 13:00:00 14.4 6 Nordeste 14 Nordeste 0 -- -- 36
2017-11-16 12:00:00 12.9 6 Este 11 Sudeste 0 -- -- 40
2017-11-16 11:00:00 9.2 6 Este 10 Sudeste 0 -- -- 57
2017-11-16 10:00:00 6.5 3 Este 4 Este 0 -- -- 62
2017-11-16 09:00:00 0.8 0 Calma 2 Este 0 -- -- 85
2017-11-16 08:00:00 -1 0 Calma 0 Calma 0 -- -- 83
2017-11-16 07:00:00 0.3 0 Calma 5 Este 0 -- -- 80
2017-11-16 06:00:00 2 0 Calma 7 Este 0 -- -- 74
2017-11-16 05:00:00 3.2 7 Este 10 Este 0 -- -- 73
2017-11-16 04:00:00 3.9 8 Este 12 Este 0 -- -- 71
2017-11-16 03:00:00 3.3 5 Este 8 Este 0 -- -- 74
2017-11-16 02:00:00 3.1 3 Sudeste 10 Este 0 -- -- 74
2017-11-16 01:00:00 3.2 7 Este -- -- 0 -- -- 75
2017-11-16 00:00:00 2.9 5 Este 6 Este 0 -- -- 73
2017-11-15 23:00:00 3.8 0 Calma 3 Sudeste 0 -- -- 68
2017-11-15 22:00:00 4.6 4 Este 6 Este 0 -- -- 68
2017-11-15 21:00:00 4.8 5 Este 6 Este 0 -- -- 68
2017-11-15 20:00:00 5.5 2 Este 3 Este 0 -- -- 64
2017-11-15 19:00:00 7.1 0 Calma 4 Noroeste 0 -- -- 58
2017-11-15 18:00:00 13.7 4 Noroeste 10 Oeste 0 -- -- 40
2017-11-15 17:00:00 15.4 4 Oeste 10 Oeste 0 -- -- 37
2017-11-15 16:00:00 15.2 4 Noroeste 12 Oeste 0 -- -- 37
2017-11-15 15:00:00 15 6 Noroeste 11 Noroeste 0 -- -- 37
2017-11-15 14:00:00 14 5 Oeste 13 Oeste 0 -- -- 39
2017-11-15 13:00:00 12.2 3 Noroeste 9 Noroeste 0 -- -- 43
2017-11-15 12:00:00 10.1 3 Nordeste 8 Norte 0 -- -- 47
2017-11-15 11:00:00 7.9 3 Nordeste 6 Este 0 -- -- 56
2017-11-15 10:00:00 4.8 5 Este 12 Este 0 -- -- 65
2017-11-15 09:00:00 2.3 9 Sudeste 17 Sudeste 0 -- -- 71
2017-11-15 08:00:00 0.9 12 Sudeste 17 Este 0 -- -- 75
2017-11-15 07:00:00 1.5 13 Este 23 Este 0 -- -- 73
2017-11-15 06:00:00 1.8 12 Este 17 Este 0 -- -- 73
2017-11-15 05:00:00 2.1 5 Este 15 Nordeste 0 -- -- 72
2017-11-15 04:00:00 1.1 0 Calma 11 Nordeste 0 -- -- 76
2017-11-15 03:00:00 2.6 5 Este 13 Nordeste 0 -- -- 71
2017-11-15 02:00:00 3.8 3 Este 21 Este 0 -- -- 66
2017-11-15 01:00:00 4.5 11 Este 19 Este 0 -- -- 65
2017-11-15 00:00:00 5.6 7 Nordeste 35 Este 0 -- -- 61
2017-11-14 23:00:00 5.6 21 Este 33 Este 0 -- -- 64
2017-11-14 22:00:00 6 12 Este 19 Nordeste 0 -- -- 64
2017-11-14 21:00:00 6.5 8 Nordeste 20 Este 0 -- -- 64
2017-11-14 20:00:00 6.5 5 Nordeste 12 Nordeste 0 -- -- 64
2017-11-14 19:00:00 8.2 6 Nordeste 15 Este 0 -- -- 58
2017-11-14 18:00:00 10.6 9 Nordeste 26 Nordeste 0 -- -- 50
2017-11-14 17:00:00 11.9 17 Este 29 Este 0 -- -- 45
2017-11-14 16:00:00 12.1 16 Este 31 Este 0 -- -- 46
2017-11-14 15:00:00 11.8 19 Este 33 Este 0 -- -- 42
2017-11-14 14:00:00 11.2 18 Nordeste 32 Nordeste 0 -- -- 43
2017-11-14 13:00:00 9.5 24 Nordeste 38 Nordeste 0 -- -- 48
2017-11-14 12:00:00 7.8 21 Este 35 Este 0 -- -- 58
2017-11-14 11:00:00 6.5 27 Este 47 Este 0 -- -- 64
2017-11-14 10:00:00 4.8 21 Este 37 Este 0 -- -- 72
2017-11-14 09:00:00 2.4 5 Nordeste 16 Nordeste 0 -- -- 81
2017-11-14 08:00:00 2 6 Nordeste 23 Este 0 -- -- 81
2017-11-14 07:00:00 2 13 Este 23 Nordeste 0 -- -- 82
2017-11-14 06:00:00 2.3 11 Este 20 Este 0 -- -- 80
2017-11-14 05:00:00 2.4 5 Este 17 Este 0 -- -- 78
2017-11-14 04:00:00 2.9 10 Este 26 Este 0 -- -- 76
2017-11-14 03:00:00 3.6 17 Este 43 Sudeste 0 -- -- 73
2017-11-14 02:00:00 3.9 22 Este 35 Este 0 -- -- 72
2017-11-14 01:00:00 4.5 21 Este 36 Este 0 -- -- 69
2017-11-14 00:00:00 4.9 17 Este 36 Este 0 -- -- 66
2017-11-13 23:00:00 5.6 23 Este 35 Este 0 -- -- 62
2017-11-13 22:00:00 6.1 20 Este 38 Este 0 -- -- 64
2017-11-13 21:00:00 6.7 11 Este 22 Este 0 -- -- 67
2017-11-13 20:00:00 6.5 9 Este 15 Este 0 -- -- 68
2017-11-13 19:00:00 8.4 8 Este 19 Este 0 -- -- 61
2017-11-13 18:00:00 10.4 9 Este 28 Este 0 -- -- 53
2017-11-13 17:00:00 12.1 14 Este 34 Nordeste 0 -- -- 48
2017-11-13 16:00:00 12.7 17 Nordeste 36 Nordeste 0 -- -- 43
2017-11-13 15:00:00 13 22 Nordeste 36 Este 0 -- -- 43
2017-11-13 14:00:00 13 18 Nordeste 35 Nordeste 0 -- -- 45
2017-11-13 13:00:00 12.6 19 Nordeste 34 Este 0 -- -- 46
2017-11-13 12:00:00 10.2 15 Nordeste 26 Nordeste 0 -- -- 68
2017-11-13 11:00:00 8.8 4 Nordeste 9 Nordeste 0 -- -- 87
2017-11-13 10:00:00 6.2 0 Calma 4 Este 0 -- -- 99
2017-11-13 09:00:00 1.7 0 Calma 5 Este 0 -- -- 98
2017-11-13 08:00:00 2.2 3 Este 9 Sudeste 0 -- -- 97
2017-11-13 07:00:00 2.9 3 Sudeste 6 Este 0 -- -- 97
2017-11-13 06:00:00 3.3 2 Sudeste 5 Sudeste 0 -- -- 97
2017-11-13 05:00:00 3 3 Este 6 Este 0 -- -- 97
2017-11-13 04:00:00 2.6 0 Calma 4 Sudeste 0 -- -- 96
2017-11-13 03:00:00 2.7 2 Sur 4 Sur 0 -- -- 95
2017-11-13 02:00:00 3.3 0 Calma 2 Noroeste 0 -- -- 95
2017-11-13 01:00:00 5.2 2 Noroeste 6 Noroeste 0 -- -- 94
2017-11-13 00:00:00 6.6 5 Noroeste 9 Noroeste 0 -- -- 93
2017-11-12 23:00:00 7 7 Noroeste 12 Oeste 0 -- -- 90
2017-11-12 22:00:00 7.8 6 Noroeste 10 Noroeste 0 -- -- 87
2017-11-12 21:00:00 8.4 6 Noroeste 11 Noroeste 0 -- -- 84
2017-11-12 20:00:00 9.2 7 Noroeste 17 Noroeste 0 -- -- 77
2017-11-12 19:00:00 10.3 8 Oeste 10 Noroeste 0 -- -- 68
2017-11-12 18:00:00 12.9 8 Noroeste 20 Noroeste 0 -- -- 57
2017-11-12 17:00:00 14.7 12 Noroeste 22 Noroeste 0 -- -- 51
2017-11-12 16:00:00 15.4 13 Noroeste 21 Noroeste 0 -- -- 46
2017-11-12 15:00:00 15.2 12 Noroeste 23 Norte 0 -- -- 50
2017-11-12 14:00:00 14.1 9 Noroeste 15 Noroeste 0 -- -- 58
2017-11-12 13:00:00 12.3 7 Noroeste 13 Noroeste 0 -- -- 63
2017-11-12 12:00:00 10.1 4 Noroeste 15 Norte 0 -- -- 75
2017-11-12 11:00:00 8.7 8 Noroeste 13 Noroeste 0 -- -- 83
2017-11-12 10:00:00 7 3 Sur 5 Sur 0 -- -- 96
2017-11-12 09:00:00 2.4 0 Calma 3 Sudeste 0 -- -- 98
2017-11-12 08:00:00 0.7 0 Calma 4 Sur 0 -- -- 95
2017-11-12 07:00:00 0.1 0 Calma 3 Sur 0 -- -- 93
2017-11-12 06:00:00 1.8 3 Sur 4 Sudeste 0 -- -- 95
2017-11-12 05:00:00 3.1 3 Sudeste 9 Sur 0 -- -- 95
2017-11-12 04:00:00 2.8 4 Sur 7 Sur 0 -- -- 95
2017-11-12 03:00:00 3.3 3 Sur 6 Sur 0 -- -- 95
2017-11-12 02:00:00 2.6 0 Calma 5 Este 0 -- -- 92
2017-11-12 01:00:00 3.8 3 Sudeste 5 Este 0 -- -- 93
2017-11-12 00:00:00 3.7 4 Sudeste 6 Este 0 -- -- 92
2017-11-11 23:00:00 3.8 0 Calma 3 Sudeste 0 -- -- 90
2017-11-11 22:00:00 4.3 0 Calma 2 Este 0 -- -- 89
2017-11-11 21:00:00 4.6 0 Calma 2 Norte 0 -- -- 85
2017-11-11 20:00:00 5.9 0 Calma 2 Noroeste 0 -- -- 80
2017-11-11 19:00:00 8.9 0 Calma 5 Norte 0 -- -- 70
2017-11-11 18:00:00 14.9 4 Norte 10 Norte 0 -- -- 56
2017-11-11 17:00:00 16.7 5 Norte 14 Norte 0 -- -- 49
2017-11-11 16:00:00 16.9 5 Nordeste 15 Nordeste 0 -- -- 48
2017-11-11 15:00:00 16.2 5 Nordeste 13 Nordeste 0 -- -- 53
2017-11-11 14:00:00 15.1 7 Nordeste 15 Nordeste 0 -- -- 56
2017-11-11 13:00:00 13.9 6 Este 13 Este 0 -- -- 57
2017-11-11 12:00:00 11.8 3 Norte 7 Nordeste 0 -- -- 74
2017-11-11 11:00:00 8.8 3 Norte 6 Norte 0 -- -- 86
2017-11-11 10:00:00 5.8 2 Norte 4 Norte 0 -- -- 97
2017-11-11 09:00:00 2.8 0 Calma 7 Este 0 -- -- 98
2017-11-11 08:00:00 -0.4 2 Este 3 Sudeste 0 -- -- 96
2017-11-11 07:00:00 -0.2 0 Calma 2 Sudeste 0 -- -- 96
2017-11-11 06:00:00 0.7 0 Calma 2 Este 0 -- -- 95
2017-11-11 05:00:00 1.8 2 Sudoeste 4 Sudoeste 0 -- -- 95
2017-11-11 04:00:00 2.2 2 Sur 4 Sudoeste 0 -- -- 95
2017-11-11 03:00:00 2.8 2 Este 3 Este 0 -- -- 95
2017-11-11 02:00:00 3.4 0 Calma 6 Este 0 -- -- 93
2017-11-11 01:00:00 3.6 3 Sudeste 4 Sudeste 0 -- -- 91
2017-11-11 00:00:00 4.5 3 Este 4 Este 0 -- -- 92
2017-11-10 23:00:00 4.7 2 Este 5 Este 0 -- -- 90
2017-11-10 22:00:00 5.5 0 Calma 5 Nordeste 0 -- -- 85
2017-11-10 21:00:00 5.9 0 Calma 4 Oeste 0 -- -- 83
2017-11-10 20:00:00 7.8 0 Calma 4 Norte 0 -- -- 80
2017-11-10 19:00:00 10.3 2 Noroeste 7 Norte 0 -- -- 66
2017-11-10 18:00:00 13.4 5 Noroeste 12 Noroeste 0 -- -- 57
2017-11-10 17:00:00 15.5 5 Norte 22 Este 0 -- -- 51
2017-11-10 16:00:00 16.1 9 Norte 26 Nordeste 0 -- -- 49
2017-11-10 15:00:00 15.9 12 Nordeste 24 Este 0 -- -- 50
2017-11-10 14:00:00 14.9 6 Norte 17 Nordeste 0 -- -- 53
2017-11-10 13:00:00 13.4 5 Nordeste 14 Nordeste 0 -- -- 54
2017-11-10 12:00:00 12.1 7 Norte 14 Norte 0 -- -- 57
2017-11-10 11:00:00 9.9 5 Norte 11 Norte 0 -- -- 58
2017-11-10 10:00:00 6.4 2 Norte 5 Norte 0 -- -- 72
2017-11-10 09:00:00 1.1 0 Calma 0 Calma 0 -- -- 89
2017-11-10 08:00:00 -0.8 0 Calma 5 Este 0 -- -- 85
2017-11-10 07:00:00 0.6 6 Este 10 Este 0 -- -- 82
2017-11-10 06:00:00 1.4 10 Sudeste 13 Este 0 -- -- 80
2017-11-10 05:00:00 1 0 Calma 13 Este 0 -- -- 80
2017-11-10 04:00:00 1.7 10 Este 14 Este 0 -- -- 78
2017-11-10 03:00:00 1.9 7 Este 14 Este 0 -- -- 76
2017-11-10 02:00:00 0.7 4 Este 12 Este 0 -- -- 83
2017-11-10 01:00:00 1 4 Este 7 Este 0 -- -- 78
2017-11-10 00:00:00 0.9 4 Este 6 Este 0 -- -- 79
2017-11-09 23:00:00 1.8 3 Este 8 Este 0 -- -- 74
2017-11-09 22:00:00 1.5 3 Este 5 Este 0 -- -- 73
2017-11-09 21:00:00 3.2 0 Calma 10 Este 0 -- -- 64
2017-11-09 20:00:00 6.3 7 Este 10 Nordeste 0 -- -- 54
2017-11-09 19:00:00 6.7 5 Este 14 Nordeste 0 -- -- 54
2017-11-09 18:00:00 9.6 10 Nordeste 21 Nordeste 0 -- -- 44
2017-11-09 17:00:00 10.8 12 Nordeste 30 Nordeste 0 -- -- 40
2017-11-09 16:00:00 11.3 14 Nordeste 30 Nordeste 0 -- -- 37
2017-11-09 15:00:00 10.8 13 Este 26 Este 0 -- -- 41
2017-11-09 14:00:00 10.1 15 Este 28 Nordeste 0 -- -- 45
2017-11-09 13:00:00 9.3 15 Nordeste 28 Este 0 -- -- 49
2017-11-09 12:00:00 8.1 11 Nordeste 23 Este 0 -- -- 58
2017-11-09 11:00:00 6.3 13 Este 24 Nordeste 0 -- -- 70
2017-11-09 10:00:00 4.4 10 Este 18 Este 0 -- -- 80
2017-11-09 09:00:00 2 10 Este 17 Sudeste 0 -- -- 91
2017-11-09 08:00:00 -1.1 3 Este 9 Sudeste 0 -- -- 93
2017-11-09 07:00:00 -0.4 6 Sudeste 9 Este 0 -- -- 94
2017-11-09 06:00:00 -0.8 3 Este 8 Este 0 -- -- 90
2017-11-09 05:00:00 1.3 5 Este 17 Nordeste 0 -- -- 89
2017-11-09 04:00:00 1.6 8 Nordeste 15 Nordeste 0 -- -- 89
2017-11-09 03:00:00 2.5 8 Nordeste 20 Este 0 -- -- 85
2017-11-09 02:00:00 3.5 11 Nordeste 21 Nordeste 0 -- -- 82
2017-11-09 01:00:00 4.1 10 Este 21 Nordeste 0 -- -- 79
2017-11-09 00:00:00 4.9 12 Nordeste 20 Este 0 -- -- 75
2017-11-08 23:00:00 5.5 7 Nordeste 18 Nordeste 0 -- -- 74
2017-11-08 22:00:00 5.7 4 Nordeste 9 Nordeste 0 -- -- 72
2017-11-08 21:00:00 7.3 6 Norte 18 Noroeste 0 -- -- 67
2017-11-08 20:00:00 8.2 13 Norte 24 Norte 0 -- -- 64
2017-11-08 19:00:00 8 7 Norte 15 Noroeste 0 -- -- 63
2017-11-08 18:00:00 10.1 11 Noroeste 23 Noroeste 0 -- -- 54
2017-11-08 17:00:00 11.7 15 Norte 25 Norte 0 -- -- 50
2017-11-08 16:00:00 12.1 10 Norte 22 Nordeste 0 -- -- 49
2017-11-08 15:00:00 11.9 13 Norte 28 Nordeste 0 -- -- 46
2017-11-08 14:00:00 11.2 14 Nordeste 28 Este 0 -- -- 47
2017-11-08 13:00:00 10.3 13 Nordeste 31 Este 0 -- -- 51
2017-11-08 12:00:00 9.5 20 Nordeste 32 Nordeste 0 -- -- 58
2017-11-08 11:00:00 7.6 16 Nordeste 28 Nordeste 0 -- -- 73
2017-11-08 10:00:00 5.5 9 Este 16 Este 0 -- -- 90
2017-11-08 09:00:00 2 0 Calma 4 Nordeste 0 -- -- 97
2017-11-08 08:00:00 0.1 2 Norte 5 Norte 0 -- -- 95
2017-11-08 07:00:00 2 4 Nordeste 7 Nordeste 0 -- -- 96
2017-11-08 06:00:00 1.8 2 Nordeste 4 Nordeste 0 -- -- 95
2017-11-08 05:00:00 3.3 2 Norte 6 Nordeste 0 -- -- 96
2017-11-08 04:00:00 3.7 3 Nordeste 6 Nordeste 0 -- -- 95
2017-11-08 03:00:00 4.1 3 Nordeste 5 Norte 0 -- -- 96
2017-11-08 02:00:00 4 2 Norte 4 Noroeste 0 -- -- 94
2017-11-08 01:00:00 4 4 Noroeste 8 Noroeste 0 -- -- 91
2017-11-08 00:00:00 6.1 4 Noroeste 18 Noroeste 0 -- -- 91
2017-11-07 23:00:00 7 10 Noroeste 17 Noroeste 0 -- -- 91
2017-11-07 22:00:00 8 2 Norte 18 Noroeste 0 -- -- 86
2017-11-07 21:00:00 9.2 9 Noroeste 17 Noroeste 0 -- -- 82
2017-11-07 20:00:00 10.3 0 Calma 17 Norte 0 -- -- 77
2017-11-07 19:00:00 11.3 6 Norte 25 Norte 0 -- -- 71
2017-11-07 18:00:00 12.8 15 Noroeste 24 Noroeste 0 -- -- 63
2017-11-07 17:00:00 14.1 15 Noroeste 23 Noroeste 0 -- -- 51
2017-11-07 16:00:00 14.7 13 Noroeste 20 Noroeste 0 -- -- 45
2017-11-07 15:00:00 14.7 14 Noroeste 29 Noroeste 0 -- -- 47
2017-11-07 14:00:00 14 7 Noroeste 13 Noroeste 0 -- -- 52
2017-11-07 13:00:00 12.2 5 Norte 12 Norte 0 -- -- 55
2017-11-07 12:00:00 10.9 3 Sudeste 9 Sudeste 0 -- -- 59
2017-11-07 11:00:00 8.3 2 Norte 6 Norte 0 -- -- 70
2017-11-07 10:00:00 6.1 3 Norte 7 Norte 0 -- -- 76
2017-11-07 09:00:00 3.7 0 Calma 11 Sudeste 0 -- -- 83
2017-11-07 08:00:00 2.3 7 Este 10 Este 0 -- -- 84
2017-11-07 07:00:00 2.5 7 Este 11 Este 0 -- -- 84
2017-11-07 06:00:00 2.6 8 Este 12 Sudeste 0 -- -- 85
2017-11-07 05:00:00 3.8 9 Este 18 Sudeste 0 -- -- 80
2017-11-07 04:00:00 4 12 Este 17 Este 0 -- -- 80
2017-11-07 03:00:00 4.3 11 Este 16 Este 0 -- -- 81
2017-11-07 02:00:00 4.2 7 Este 13 Este 0 -- -- 85
2017-11-07 01:00:00 4.9 7 Este 11 Este 0 -- -- 82
2017-11-07 00:00:00 5.3 5 Nordeste 10 Nordeste 0 -- -- 84
2017-11-06 23:00:00 4.2 0 Calma 8 Este 0 -- -- 85
2017-11-06 22:00:00 5.1 6 Sudeste 13 Este 0 -- -- 83
2017-11-06 21:00:00 7.8 9 Este 15 Este 0 -- -- 74
2017-11-06 20:00:00 8.2 9 Este 14 Este 0 -- -- 73
2017-11-06 19:00:00 9.9 8 Este 13 Este 0 -- -- 67
2017-11-06 18:00:00 11.8 7 Nordeste 18 Este 0 -- -- 57
2017-11-06 17:00:00 13 12 Nordeste 19 Este 0 -- -- 52
2017-11-06 16:00:00 13.2 13 Este 23 Este 0 -- -- 52
2017-11-06 15:00:00 13.1 13 Nordeste 22 Este 0 -- -- 52
2017-11-06 14:00:00 12.5 16 Este 29 Nordeste 0 -- -- 55
2017-11-06 13:00:00 11.9 15 Este 28 Nordeste 0 -- -- 58
2017-11-06 12:00:00 10.9 17 Este 31 Este 0 -- -- 61
2017-11-06 11:00:00 9.8 15 Este 25 Nordeste 0 -- -- 66
2017-11-06 10:00:00 7.7 15 Este 24 Este 0 -- -- 74
2017-11-06 09:00:00 5.7 10 Este 18 Este 0 -- -- 80
2017-11-06 08:00:00 4.2 8 Este 17 Este 0 -- -- 85
2017-11-06 07:00:00 4.4 12 Este 18 Este 0 -- -- 84
2017-11-06 06:00:00 3.8 10 Este 19 Este 0 -- -- 88
2017-11-06 05:00:00 3.9 5 Este 10 Este 0 -- -- 88
2017-11-06 04:00:00 3.9 5 Este 11 Este 0 -- -- 87
2017-11-06 03:00:00 4.2 7 Este 10 Este 0 -- -- 86
2017-11-06 02:00:00 3.6 2 Sudeste 7 Nordeste 0 -- -- 84
2017-11-06 01:00:00 4.4 4 Nordeste 7 Norte 0 -- -- 85
2017-11-06 00:00:00 4.8 3 Norte 7 Norte 0 -- -- 83
2017-11-05 23:00:00 5.8 3 Nordeste 6 Norte 0 -- -- 80
2017-11-05 22:00:00 7 3 Norte 17 Norte 0 -- -- 76
2017-11-05 21:00:00 7.7 9 Norte 13 Norte 0 -- -- 77
2017-11-05 20:00:00 7.6 4 Noroeste 10 Norte 0 -- -- 76
2017-11-05 19:00:00 9 3 Noroeste 6 Noroeste 0 -- -- 73
2017-11-05 18:00:00 11.1 3 Norte 12 Norte 0 -- -- 67
2017-11-05 17:00:00 11 5 Norte 15 Norte 0 -- -- 66
2017-11-05 16:00:00 12 9 Nordeste 18 Nordeste 0 -- -- 59
2017-11-05 15:00:00 12.6 8 Nordeste 26 Nordeste 0 -- -- 59
2017-11-05 14:00:00 11.9 10 Nordeste 23 Norte 0 -- -- 63
2017-11-05 13:00:00 11.1 10 Nordeste 19 Norte 0 -- -- 69
2017-11-05 12:00:00 9.9 9 Nordeste 16 Nordeste 0 -- -- 79
2017-11-05 11:00:00 8.9 5 Norte 9 Norte 0 -- -- 88
2017-11-05 10:00:00 7.7 6 Norte 12 Norte 0 -- -- 94
2017-11-05 09:00:00 5.7 0 Calma 5 Noroeste 0 -- -- 98
2017-11-05 08:00:00 3.3 2 Noroeste 4 Norte 0 -- -- 96
2017-11-05 07:00:00 4 0 Calma 4 Noroeste 0 -- -- 95
2017-11-05 06:00:00 4.8 2 Noroeste 5 Noroeste 0 -- -- 94
2017-11-05 05:00:00 6 6 Norte 13 Noroeste 0 -- -- 95
2017-11-05 04:00:00 6.9 9 Noroeste 15 Noroeste 0 -- -- 94
2017-11-05 03:00:00 7.6 8 Noroeste 12 Noroeste 0 -- -- 94
2017-11-05 02:00:00 8.3 8 Noroeste 15 Noroeste 0 -- -- 93
2017-11-05 01:00:00 8.8 12 Noroeste 17 Noroeste 0 -- -- 93
2017-11-05 00:00:00 9.4 12 Noroeste 21 Noroeste 0 -- -- 92
2017-11-04 23:00:00 10.1 14 Noroeste 23 Noroeste 0 -- -- 89
2017-11-04 22:00:00 10.9 13 Noroeste 24 Noroeste 0 -- -- 87
2017-11-04 21:00:00 11.9 14 Noroeste 23 Noroeste 0 -- -- 85
2017-11-04 20:00:00 12.3 12 Noroeste 20 Noroeste 0 -- -- 88
2017-11-04 19:00:00 12 9 Noroeste 18 Noroeste 0 -- -- 90
2017-11-04 18:00:00 13 13 Noroeste 24 Noroeste 0 -- -- 85
2017-11-04 17:00:00 14.3 9 Noroeste 16 Noroeste 0 -- -- 84
2017-11-04 16:00:00 12.5 8 Noroeste 28 Norte 1.4 -- -- 92
2017-11-04 15:00:00 14.2 11 Noroeste 19 Noroeste 0 -- -- 82
2017-11-04 14:00:00 13.3 10 Noroeste 20 Noroeste 0.4 -- -- 85
2017-11-04 13:00:00 12.2 3 Noroeste 19 Noroeste 0.2 -- -- 87
2017-11-04 12:00:00 12.1 4 Sudoeste 10 Oeste 0.4 -- -- 87
2017-11-04 11:00:00 13 3 Sudoeste 10 Sudeste 0 -- -- 84
2017-11-04 10:00:00 11.8 6 Sudeste 12 Sudeste 0 -- -- 94
2017-11-04 09:00:00 10.4 7 Sudeste 12 Sudeste 0 -- -- 97
2017-11-04 08:00:00 10.3 7 Sudeste 10 Sudeste 0.4 -- -- 96
2017-11-04 07:00:00 10.4 6 Sudeste 13 Sudeste 0.2 -- -- 96
2017-11-04 06:00:00 10.3 9 Sudeste 13 Sudeste 0.2 -- -- 96
2017-11-04 05:00:00 10.4 8 Sudeste 15 Sur 0.4 -- -- 95
2017-11-04 04:00:00 10.7 10 Sur 22 Sudeste 1 -- -- 95
2017-11-04 03:00:00 10.6 8 Sudeste 19 Este 1 -- -- 95
2017-11-04 02:00:00 10.7 11 Sudeste 19 Sudeste 1.6 -- -- 94
2017-11-04 01:00:00 10.7 9 Este 23 Sudeste 0 -- -- 90
2017-11-04 00:00:00 11 10 Sudeste 16 Sudeste 0 -- -- 89
2017-11-03 23:00:00 10.9 7 Sudeste 14 Sur 0 -- -- 89
2017-11-03 22:00:00 10.5 6 Sur 13 Sur 0 -- -- 92
2017-11-03 21:00:00 10.4 4 Sudeste 9 Sudeste 0 -- -- 91
2017-11-03 20:00:00 11 6 Sur 22 Sur 0.2 -- -- 88
2017-11-03 19:00:00 12.2 6 Sur 14 Sur 0 -- -- 85
2017-11-03 18:00:00 12.5 4 Sur 8 Sur 0 -- -- 87
2017-11-03 17:00:00 12.7 6 Sur 14 Sur 0.4 -- -- 87
2017-11-03 16:00:00 12.8 7 Sur 28 Sur 0.2 -- -- 87
2017-11-03 15:00:00 12.5 6 Sudoeste 25 Sur 2 -- -- 87
2017-11-03 14:00:00 13.6 11 Sur 23 Sur 0 -- -- 77
2017-11-03 13:00:00 13.2 14 Sudoeste 30 Sur 0 -- -- 80
2017-11-03 12:00:00 13.8 18 Sur 32 Sur 0 -- -- 77
2017-11-03 11:00:00 12.9 18 Sur 27 Sur 0 -- -- 84
2017-11-03 10:00:00 11.6 10 Sur 20 Sur 0 -- -- 93
2017-11-03 09:00:00 10 9 Sur 14 Sur 0 -- -- 97
2017-11-03 08:00:00 8.8 5 Sur 10 Sur 0 -- -- 96
2017-11-03 07:00:00 9 4 Sur 11 Sur 0 -- -- 95
2017-11-03 06:00:00 9.6 6 Sur 13 Sur 0 -- -- 95
2017-11-03 05:00:00 10.3 9 Sur 18 Sur 0 -- -- 95
2017-11-03 04:00:00 10.7 10 Sur 17 Sur 0 -- -- 94
2017-11-03 03:00:00 11.2 8 Sur 18 Sudeste 1.6 -- -- 95
2017-11-03 02:00:00 11.4 7 Sur 13 Sudeste 2.2 -- -- 95
2017-11-03 01:00:00 11.7 3 Sudoeste 11 Sudoeste 6.4 -- -- 95
2017-11-03 00:00:00 11.9 3 Sur 15 Sur 1 -- -- 95
2017-11-02 23:00:00 12.1 11 Sur 22 Sudeste 1.6 -- -- 95
2017-11-02 22:00:00 11.9 7 Sudeste 10 Sudeste 0 -- -- 95
2017-11-02 21:00:00 12 5 Sur 16 Sur 0 -- -- 95
2017-11-02 20:00:00 12.4 10 Sur 16 Sudoeste 2 -- -- 94
2017-11-02 19:00:00 12.7 7 Sur 21 Sur 1.4 -- -- 92
2017-11-02 18:00:00 13.4 10 Sur 22 Sudeste 0.2 -- -- 86
2017-11-02 17:00:00 13.8 5 Sur 27 Sur 0.4 -- -- 84
2017-11-02 16:00:00 14.3 5 Sur 26 Sur 0.4 -- -- 81
2017-11-02 15:00:00 16 16 Sur 32 Sur 0 -- -- 68
2017-11-02 14:00:00 16.1 21 Sur 38 Sudoeste 0 -- -- 67
2017-11-02 13:00:00 15.1 20 Sur 33 Sur 0 -- -- 73
2017-11-02 12:00:00 13.9 15 Sur 30 Sur 0 -- -- 81
2017-11-02 11:00:00 13.3 18 Sur 32 Sur 0 -- -- 84
2017-11-02 10:00:00 13.7 17 Sur 30 Sur 0 -- -- 83
2017-11-02 09:00:00 13.1 13 Sur 23 Sur 0 -- -- 87
2017-11-02 08:00:00 11.6 6 Sur 13 Sudeste 0 -- -- 88
2017-11-02 07:00:00 12.5 8 Sur 21 Sur 0 -- -- 84
2017-11-02 06:00:00 13.1 13 Sur 24 Sur 0 -- -- 83
2017-11-02 05:00:00 13.3 10 Sur 20 Sur 0 -- -- 80
2017-11-02 04:00:00 13.2 3 Sur 8 Sudoeste 0 -- -- 77
2017-11-02 03:00:00 12.6 0 Calma 9 Sur 0 -- -- 74
2017-11-02 02:00:00 13.6 6 Sur 16 Sur 0 -- -- 71
2017-11-02 01:00:00 12.8 3 Sudeste 8 Sur 0 -- -- 73
2017-11-02 00:00:00 13.1 4 Sudeste 8 Este 0 -- -- 71
2017-11-01 23:00:00 13.8 4 Sudeste 10 Este 0 -- -- 69
2017-11-01 22:00:00 13.3 6 Sudeste 10 Este 0 -- -- 69
2017-11-01 21:00:00 13.9 6 Sudeste 10 Sudeste 0 -- -- 68
2017-11-01 20:00:00 14.6 7 Sudeste 11 Sudeste 0 -- -- 65
2017-11-01 19:00:00 15.8 8 Sur 18 Sur 0 -- -- 62
2017-11-01 18:00:00 16.6 12 Sur 25 Sur 0 -- -- 59
2017-11-01 17:00:00 17.3 14 Sudoeste 32 Sudoeste 0 -- -- 56
2017-11-01 16:00:00 17.6 15 Sur 34 Sur 0 -- -- 56
2017-11-01 15:00:00 18.4 19 Sur 31 Sur 0 -- -- 52
2017-11-01 14:00:00 18.3 18 Sur 36 Sur 0 -- -- 55
2017-11-01 13:00:00 17.8 20 Sur 33 Sur 0 -- -- 57
2017-11-01 12:00:00 16.8 15 Sudoeste 28 Sur 0 -- -- 60
2017-11-01 11:00:00 15.7 17 Sur 25 Sur 0 -- -- 64
2017-11-01 10:00:00 13.9 11 Sur 18 Sur 0 -- -- 68
2017-11-01 09:00:00 9.8 6 Sur 10 Sur 0 -- -- 77
2017-11-01 08:00:00 7.3 6 Sur 9 Sudeste 0 -- -- 80
2017-11-01 07:00:00 5.6 5 Sudeste 8 Sudeste 0 -- -- 85
2017-11-01 06:00:00 4.4 0 Calma 5 Sudeste 0 -- -- 79
2017-11-01 05:00:00 5.3 4 Sur 7 Sudeste 0 -- -- 79
2017-11-01 04:00:00 7.9 5 Sur 12 Sur 0 -- -- 68
2017-11-01 03:00:00 8.3 8 Sur 11 Sudeste 0 -- -- 71
2017-11-01 02:00:00 9 8 Sudeste 12 Sudeste 0 -- -- 70
2017-11-01 01:00:00 9.1 9 Sudeste 13 Sur 0 -- -- 69
2017-11-01 00:00:00 9.3 9 Sur 12 Sur 0 -- -- 68
2017-10-31 23:00:00 10.6 8 Sudeste 12 Sur 0 -- -- 65
2017-10-31 22:00:00 10.1 8 Sur 10 Sur 0 -- -- 65
2017-10-31 21:00:00 8.6 4 Sur 7 Sudeste 0 -- -- 66
2017-10-31 20:00:00 10.5 5 Este 7 Este 0 -- -- 63
2017-10-31 19:00:00 12.5 0 Calma 7 Nordeste 0 -- -- 53
2017-10-31 18:00:00 18.1 5 Nordeste 10 Noroeste 0 -- -- 43
2017-10-31 17:00:00 19.8 3 Sudoeste 15 Sudoeste 0 -- -- 40
2017-10-31 16:00:00 19.2 6 Noroeste 11 Noroeste 0 -- -- 41
2017-10-31 15:00:00 17.8 5 Noroeste 10 Noroeste 0 -- -- 44
2017-10-31 14:00:00 16.2 3 Noroeste 10 Norte 0 -- -- 47
2017-10-31 13:00:00 13.5 6 Nordeste 13 Nordeste 0 -- -- 53
2017-10-31 12:00:00 11.2 7 Este 15 Nordeste 0 -- -- 60
2017-10-31 11:00:00 8.7 5 Nordeste 15 Este 0 -- -- 67
2017-10-31 10:00:00 6.4 10 Este 23 Este 0 -- -- 76
2017-10-31 09:00:00 4 6 Este 11 Este 0 -- -- 86
2017-10-31 08:00:00 2.4 6 Este 11 Este 0 -- -- 89
2017-10-31 07:00:00 2.8 4 Nordeste 10 Nordeste 0 -- -- 88
2017-10-31 06:00:00 4.5 5 Nordeste 18 Este 0 -- -- 84
2017-10-31 05:00:00 5.2 8 Este 20 Este 0 -- -- 82
2017-10-31 04:00:00 6.4 12 Este 30 Este 0 -- -- 77
2017-10-31 03:00:00 6.7 16 Este 28 Nordeste 0 -- -- 79
2017-10-31 02:00:00 7.4 10 Este 27 Nordeste 0 -- -- 78
2017-10-31 01:00:00 8.9 16 Este 29 Este 0 -- -- 74
2017-10-31 00:00:00 9.5 17 Este 28 Este 0 -- -- 73
2017-10-30 23:00:00 10.7 7 Este 19 Este 0 -- -- 69
2017-10-30 22:00:00 11.4 8 Este 19 Este 0 -- -- 66
2017-10-30 21:00:00 11.7 8 Este 19 Este 0 -- -- 66
2017-10-30 20:00:00 13.1 6 Nordeste 12 Nordeste 0 -- -- 61
2017-10-30 19:00:00 14.6 7 Este 27 Nordeste 0 -- -- 57
2017-10-30 18:00:00 16.5 13 Este 33 Este 0 -- -- 52
2017-10-30 17:00:00 17.4 18 Este 30 Nordeste 0 -- -- 50
2017-10-30 16:00:00 17.2 20 Este 37 Este 0 -- -- 52
2017-10-30 15:00:00 17.1 19 Este 37 Este 0 -- -- 51
2017-10-30 14:00:00 16.6 26 Nordeste 46 Este 0 -- -- 53
2017-10-30 13:00:00 16.1 26 Este 49 Este 0 -- -- 54
2017-10-30 12:00:00 15.1 30 Este 48 Este 0 -- -- 58
2017-10-30 11:00:00 12.9 24 Este 44 Este 0 -- -- 67
2017-10-30 10:00:00 9.9 20 Este 32 Este 0 -- -- 80
2017-10-30 09:00:00 7.5 14 Este 28 Este 0 -- -- 87
2017-10-30 08:00:00 7 14 Este 28 Este 0 -- -- 88
2017-10-30 07:00:00 6.8 13 Este 23 Este 0 -- -- 89
2017-10-30 06:00:00 7.1 12 Este 22 Este 0 -- -- 89
2017-10-30 05:00:00 7.5 12 Este 22 Este 0 -- -- 87
2017-10-30 04:00:00 7.9 13 Este 22 Este 0 -- -- 85
2017-10-30 03:00:00 8.5 14 Este 28 Este 0 -- -- 83
2017-10-30 02:00:00 9.3 16 Este 27 Este 0 -- -- 79
2017-10-30 01:00:00 9.8 12 Nordeste 26 Este 0 -- -- 75
2017-10-30 00:00:00 11.1 14 Este 26 Este 0 -- -- 68
2017-10-29 23:00:00 12.5 14 Este 26 Este 0 -- -- 59
2017-10-29 22:00:00 11.4 7 Nordeste 15 Nordeste 0 -- -- 46
2017-10-29 21:00:00 10.9 4 Este 12 Este 0 -- -- 47
2017-10-29 20:00:00 14.3 5 Este 13 Este 0 -- -- 39
2017-10-29 19:00:00 16.3 8 Nordeste 15 Nordeste 0 -- -- 36
2017-10-29 18:00:00 19.6 10 Nordeste 23 Este 0 -- -- 27
2017-10-29 17:00:00 21.1 13 Nordeste 27 Nordeste 0 -- -- 22
2017-10-29 16:00:00 21.5 14 Nordeste 27 Este 0 -- -- 20
2017-10-29 15:00:00 21.4 13 Nordeste 27 Este 0 -- -- 19
2017-10-29 14:00:00 20.5 13 Nordeste 28 Nordeste 0 -- -- 20
2017-10-29 13:00:00 18.9 15 Este 28 Este 0 -- -- 26
2017-10-29 12:00:00 16.5 17 Este 27 Este 0 -- -- 34
2017-10-29 11:00:00 13.3 13 Este 28 Este 0 -- -- 52
2017-10-29 10:00:00 10.1 7 Este 19 Este 0 -- -- 73
2017-10-29 09:00:00 7.6 4 Este 11 Este 0 -- -- 82
2017-10-29 08:00:00 5.8 6 Nordeste 20 Nordeste 0 -- -- 87
2017-10-29 07:00:00 6.7 10 Este 16 Este 0 -- -- 86
2017-10-29 06:00:00 7.5 8 Este 19 Este 0 -- -- 83
2017-10-29 05:00:00 8.1 5 Este 22 Nordeste 0 -- -- 80
2017-10-29 04:00:00 7.9 9 Este 22 Nordeste 0 -- -- 82
2017-10-29 03:00:00 8.9 13 Este 22 Nordeste 0 -- -- 77
2017-10-29 02:00:00 9.8 10 Nordeste 16 Este 0 -- -- 73
2017-10-29 01:00:00 12.3 12 Este 29 Este 0 -- -- 61
2017-10-29 00:00:00 13.8 18 Este 33 Este 0 -- -- 55
2017-10-28 23:00:00 14 10 Este 26 Este 0 -- -- 53
2017-10-28 22:00:00 14.7 13 Nordeste 19 Nordeste 0 -- -- 50
2017-10-28 21:00:00 15.4 6 Nordeste 10 Nordeste 0 -- -- 46
2017-10-28 20:00:00 17.4 5 Nordeste 19 Nordeste 0 -- -- 41
2017-10-28 19:00:00 20.1 14 Nordeste 26 Nordeste 0 -- -- 36
2017-10-28 18:00:00 20.9 14 Nordeste 33 Este 0 -- -- 38
2017-10-28 17:00:00 20.9 18 Nordeste 31 Norte 0 -- -- 38
2017-10-28 16:00:00 21.3 18 Nordeste 36 Nordeste 0 -- -- 38
2017-10-28 15:00:00 20.8 18 Nordeste 29 Este 0 -- -- 40
2017-10-28 14:00:00 18.7 15 Este 34 Este 0 -- -- 48
2017-10-28 13:00:00 17.4 19 Este 35 Este 0 -- -- 51
2017-10-28 12:00:00 15.6 24 Este 42 Este 0 -- -- 59
2017-10-28 11:00:00 13.6 26 Este 42 Este 0 -- -- 69
2017-10-28 10:00:00 11.9 22 Este 36 Este 0 -- -- 76
2017-10-28 09:00:00 10.6 20 Este 37 Este 0 -- -- 80
2017-10-28 08:00:00 10.9 18 Este 30 Este 0 -- -- 79
2017-10-28 07:00:00 11.1 18 Este 28 Este 0 -- -- 79
2017-10-28 06:00:00 11.6 15 Este 29 Este 0 -- -- 73
2017-10-28 05:00:00 12.6 14 Este 21 Este 0 -- -- 66
2017-10-28 04:00:00 13.4 9 Este 22 Este 0 -- -- 60
2017-10-28 03:00:00 14.9 14 Este 26 Este 0 -- -- 54
2017-10-28 02:00:00 15.6 15 Este 24 Este 0 -- -- 49
2017-10-28 01:00:00 16 8 Este 19 Este 0 -- -- 45
2017-10-28 00:00:00 17.2 8 Nordeste 15 Este 0 -- -- 42
2017-10-27 23:00:00 15.6 9 Este 12 Este 0 -- -- 46
2017-10-27 22:00:00 16.9 7 Este 17 Este 0 -- -- 42
2017-10-27 21:00:00 20.6 11 Este 18 Este 0 -- -- 34
2017-10-27 20:00:00 21.6 8 Este 17 Este 0 -- -- 32
2017-10-27 19:00:00 24.5 12 Este 27 Nordeste 0 -- -- 27
2017-10-27 18:00:00 26 16 Nordeste 30 Nordeste 0 -- -- 25
2017-10-27 17:00:00 26.4 15 Nordeste 31 Nordeste 0 -- -- 26
2017-10-27 16:00:00 26.7 12 Nordeste 24 Nordeste 0 -- -- 27
2017-10-27 15:00:00 25.7 13 Nordeste 23 Nordeste 0 -- -- 29
2017-10-27 14:00:00 24.6 17 Este 27 Este 0 -- -- 32
2017-10-27 13:00:00 22.4 9 Nordeste 22 Nordeste 0 -- -- 35
2017-10-27 12:00:00 20.2 13 Este 20 Este 0 -- -- 38
2017-10-27 11:00:00 16.8 12 Este 20 Este 0 -- -- 45
2017-10-27 10:00:00 13 14 Este 19 Este 0 -- -- 53
2017-10-27 09:00:00 10.7 6 Este 16 Este 0 -- -- 58
2017-10-27 08:00:00 10.9 9 Este 13 Este 0 -- -- 59
2017-10-27 07:00:00 11.9 9 Este 14 Este 0 -- -- 56
2017-10-27 06:00:00 12.5 10 Este 15 Este 0 -- -- 54
2017-10-27 05:00:00 13.2 12 Este 17 Este 0 -- -- 55
2017-10-27 04:00:00 12.9 11 Este 17 Este 0 -- -- 58
2017-10-27 03:00:00 13.5 12 Este 15 Este 0 -- -- 58
2017-10-27 02:00:00 14.3 9 Este 14 Este 0 -- -- 56
2017-10-27 01:00:00 14.6 13 Este 15 Este 0 -- -- 55
2017-10-27 00:00:00 14.8 8 Este 12 Este 0 -- -- 54
2017-10-26 23:00:00 13.7 0 Calma 8 Este 0 -- -- 56
2017-10-26 22:00:00 14.8 0 Calma 5 Este 0 -- -- 53
2017-10-26 21:00:00 16.6 4 Nordeste 6 Nordeste 0 -- -- 48
2017-10-26 20:00:00 19.7 2 Nordeste 6 Norte 0 -- -- 41
2017-10-26 19:00:00 24.8 3 Norte 8 Este 0 -- -- 33
2017-10-26 18:00:00 26.2 3 Norte 9 Nordeste 0 -- -- 29
2017-10-26 17:00:00 26.3 5 Noroeste 11 Norte 0 -- -- 29
2017-10-26 16:00:00 26.1 5 Sudoeste 14 Sudoeste 0 -- -- 32
2017-10-26 15:00:00 24.7 8 Oeste 18 Sudoeste 0 -- -- 34
2017-10-26 14:00:00 23.8 9 Sudoeste 23 Sur 0 -- -- 38
2017-10-26 13:00:00 22.8 13 Sudoeste 22 Sudoeste 0 -- -- 37
2017-10-26 12:00:00 20.9 9 Sudoeste 17 Sudoeste 0 -- -- 49
2017-10-26 11:00:00 18.5 8 Sur 13 Sur 0 -- -- 55
2017-10-26 10:00:00 14.3 5 Sudeste 10 Sudeste 0 -- -- 64
2017-10-26 09:00:00 10.2 4 Sudeste 11 Sur 0 -- -- 74
2017-10-26 08:00:00 12.4 9 Sur 13 Sur 0 -- -- 65
2017-10-26 07:00:00 12.7 9 Sur 12 Sur 0 -- -- 61
2017-10-26 06:00:00 11.3 6 Sur 10 Sur 0 -- -- 58
2017-10-26 05:00:00 7.7 3 Sudeste 4 Sudeste 0 -- -- 68
2017-10-26 04:00:00 8.7 2 Sur 6 Sudeste 0 -- -- 65
2017-10-26 03:00:00 10 2 Sudeste 9 Sur 0 -- -- 59
2017-10-26 02:00:00 11.6 5 Sur 9 Sur 0 -- -- 54
2017-10-26 01:00:00 13.2 5 Sur 10 Sur 0 -- -- 50
2017-10-26 00:00:00 14 6 Sur 15 Sudeste 0 -- -- 49